Time;durP1;ratioP1;P1;durP2;ratioP2;P2;SDS_P1;SDS_P2;PMS_P1;PMS_P2;Temp;Humidity;BMP_temperature;BMP_pressure;BME280_temperature;BME280_humidity;BME280_pressure;Samples;Min_cycle;Max_cycle;Signal;HPM_P1;HPM_P2
2021/12/31 00:07:04;;;;;;;62.83;17.75;;;;;;;;;;4981255;28;20044;-92
2021/12/31 00:09:29;;;;;;;63.00;16.83;;;;;;;;;;4975117;28;20023;-92
2021/12/31 00:11:54;;;;;;;36.70;12.88;;;;;;;;;;4974803;28;20049;-92
2021/12/31 00:14:20;;;;;;;36.25;13.63;;;;;;;;;;4976194;28;20035;-92
2021/12/31 00:16:46;;;;;;;28.77;11.73;;;;;;;;;;4978708;28;20486;-92
2021/12/31 00:19:13;;;;;;;27.30;10.75;;;;;;;;;;4975134;28;20026;-92
2021/12/31 00:21:39;;;;;;;23.67;9.05;;;;;;;;;;4973762;28;20063;-92
2021/12/31 00:24:04;;;;;;;10.98;6.22;;;;;;;;;;4973838;28;20407;-92
2021/12/31 00:26:30;;;;;;;10.40;5.65;;;;;;;;;;4978325;28;20018;-92
2021/12/31 00:28:55;;;;;;;12.82;6.03;;;;;;;;;;4976160;28;20030;-92
2021/12/31 00:31:20;;;;;;;9.32;5.00;;;;;;;;;;4973827;28;20031;-92
2021/12/31 00:33:45;;;;;;;9.60;5.22;;;;;;;;;;4972801;28;20118;-92
2021/12/31 00:36:11;;;;;;;8.63;5.32;;;;;;;;;;4976189;28;20431;-92
2021/12/31 00:38:36;;;;;;;6.93;4.60;;;;;;;;;;4973396;28;20570;-92
2021/12/31 00:41:01;;;;;;;6.93;4.68;;;;;;;;;;4975784;28;20495;-92
2021/12/31 00:43:26;;;;;;;8.73;4.70;;;;;;;;;;4974572;28;20497;-92
2021/12/31 00:45:52;;;;;;;7.53;4.20;;;;;;;;;;4974819;28;20026;-92
2021/12/31 00:48:17;;;;;;;7.63;4.13;;;;;;;;;;4976456;28;20501;-91
2021/12/31 00:50:42;;;;;;;5.80;3.63;;;;;;;;;;4975682;28;20019;-91
2021/12/31 00:53:07;;;;;;;4.55;3.30;;;;;;;;;;4974877;28;20030;-91
2021/12/31 00:55:33;;;;;;;6.18;3.67;;;;;;;;;;4975875;28;20158;-91
2021/12/31 00:57:58;;;;;;;7.38;3.47;;;;;;;;;;4978773;28;20034;-91
2021/12/31 01:00:23;;;;;;;5.35;3.42;;;;;;;;;;4975879;28;20030;-91
2021/12/31 01:02:49;;;;;;;5.93;4.20;;;;;;;;;;4975085;28;20023;-92
2021/12/31 01:05:15;;;;;;;6.82;4.22;;;;;;;;;;4977647;28;20119;-92
2021/12/31 01:07:40;;;;;;;8.93;4.45;;;;;;;;;;4975456;28;20077;-92
2021/12/31 01:10:06;;;;;;;8.77;5.00;;;;;;;;;;4975376;28;20023;-91
2021/12/31 01:12:32;;;;;;;8.98;4.80;;;;;;;;;;4973734;28;20101;-91
2021/12/31 01:15:02;;;;;;;6.32;4.10;;;;;;;;;;4973072;28;20062;-92
2021/12/31 01:18:04;;;;;;;7.10;4.07;;;;;;;;;;4972499;28;20046;-92
2021/12/31 01:20:29;;;;;;;;;;;;;;;;;;4972966;28;20101;-92
2021/12/31 01:22:54;;;;;;;8.68;3.67;;;;;;;;;;4956316;28;19910;-92
2021/12/31 01:25:20;;;;;;;4.13;2.90;;;;;;;;;;4974406;28;20038;-92
2021/12/31 01:27:45;;;;;;;8.52;3.63;;;;;;;;;;4979045;28;20022;-92
2021/12/31 01:30:13;;;;;;;6.38;3.30;;;;;;;;;;4956164;28;20027;-92
2021/12/31 01:32:39;;;;;;;3.97;3.08;;;;;;;;;;4979508;28;20096;-92
2021/12/31 01:35:04;;;;;;;5.95;4.07;;;;;;;;;;4955927;28;20121;-92
2021/12/31 01:37:29;;;;;;;8.60;4.97;;;;;;;;;;4956980;28;20096;-92
2021/12/31 01:39:55;;;;;;;15.18;5.80;;;;;;;;;;4956278;28;20023;-92
2021/12/31 01:42:28;;;;;;;13.05;6.72;;;;;;;;;;4956584;28;20109;-92
2021/12/31 01:44:59;;;;;;;15.50;6.90;;;;;;;;;;4956858;28;20173;-92
2021/12/31 01:47:34;;;;;;;14.50;6.40;;;;;;;;;;4956344;28;20023;-92
2021/12/31 01:50:05;;;;;;;18.17;7.93;;;;;;;;;;4973383;28;20022;-93
2021/12/31 01:52:30;;;;;;;24.30;7.22;;;;;;;;;;4956627;28;20035;-92
2021/12/31 01:54:55;;;;;;;27.27;8.20;;;;;;;;;;4956238;28;20046;-93
2021/12/31 01:57:21;;;;;;;36.08;9.98;;;;;;;;;;4959340;28;20041;-92
2021/12/31 01:59:46;;;;;;;31.75;7.85;;;;;;;;;;4960309;28;20030;-91
2021/12/31 02:02:12;;;;;;;27.73;8.80;;;;;;;;;;4956231;28;20144;-92
2021/12/31 02:04:38;;;;;;;22.30;6.55;;;;;;;;;;4955822;28;20036;-92
2021/12/31 02:07:04;;;;;;;20.58;6.55;;;;;;;;;;4956077;28;20045;-92
2021/12/31 02:09:34;;;;;;;30.75;6.57;;;;;;;;;;4956400;28;20023;-92
2021/12/31 02:11:59;;;;;;;24.05;5.70;;;;;;;;;;4955782;28;20034;-93
2021/12/31 02:14:24;;;;;;;17.95;5.25;;;;;;;;;;4974125;28;20023;-92
2021/12/31 02:16:50;;;;;;;25.08;5.47;;;;;;;;;;4956383;28;20027;-93
2021/12/31 02:19:17;;;;;;;20.98;5.53;;;;;;;;;;4956927;28;20090;-93
2021/12/31 02:21:45;;;;;;;30.02;6.53;;;;;;;;;;4964487;28;20059;-93
2021/12/31 02:24:12;;;;;;;18.30;5.30;;;;;;;;;;4972887;28;20026;-93
2021/12/31 02:26:37;;;;;;;22.90;7.00;;;;;;;;;;4977933;28;20010;-92
2021/12/31 02:29:03;;;;;;;27.38;7.43;;;;;;;;;;4978937;28;20027;-93
2021/12/31 02:31:28;;;;;;;25.42;8.38;;;;;;;;;;4973578;28;20031;-92
2021/12/31 02:33:53;;;;;;;30.23;8.95;;;;;;;;;;4985199;28;20011;-92
2021/12/31 02:36:19;;;;;;;26.90;8.10;;;;;;;;;;4972839;28;20113;-92
2021/12/31 02:38:45;;;;;;;27.83;7.25;;;;;;;;;;4973116;28;20031;-92
2021/12/31 02:41:10;;;;;;;40.83;8.68;;;;;;;;;;4973438;28;20069;-93
2021/12/31 02:43:36;;;;;;;43.63;9.30;;;;;;;;;;4973242;28;20031;-92
2021/12/31 02:46:01;;;;;;;45.13;9.75;;;;;;;;;;4972432;28;20042;-93
2021/12/31 02:48:27;;;;;;;48.67;10.10;;;;;;;;;;4973621;28;20109;-93
2021/12/31 02:50:58;;;;;;;67.25;11.73;;;;;;;;;;4972870;28;20035;-93
2021/12/31 02:53:25;;;;;;;65.97;11.70;;;;;;;;;;4972713;28;20110;-92
2021/12/31 02:55:54;;;;;;;48.45;9.77;;;;;;;;;;4974534;28;20022;-92
2021/12/31 02:58:20;;;;;;;50.60;9.90;;;;;;;;;;4981012;28;20038;-93
2021/12/31 03:00:45;;;;;;;49.35;9.18;;;;;;;;;;4975479;28;20809;-93
2021/12/31 03:03:12;;;;;;;48.47;9.25;;;;;;;;;;4983085;28;20035;-93
2021/12/31 03:05:38;;;;;;;49.17;9.02;;;;;;;;;;4973372;28;20011;-92
2021/12/31 03:08:03;;;;;;;48.78;8.65;;;;;;;;;;4972749;28;20026;-92
2021/12/31 03:10:29;;;;;;;34.95;7.60;;;;;;;;;;4972884;28;20409;-92
2021/12/31 03:12:55;;;;;;;49.33;8.38;;;;;;;;;;4971142;28;20451;-92
2021/12/31 03:15:22;;;;;;;43.75;7.55;;;;;;;;;;4970867;28;20019;-91
2021/12/31 03:17:48;;;;;;;37.65;6.93;;;;;;;;;;4970872;28;20400;-93
2021/12/31 03:20:17;;;;;;;43.55;7.88;;;;;;;;;;4972866;28;20026;-92
2021/12/31 03:22:43;;;;;;;37.65;8.15;;;;;;;;;;4974988;28;20054;-92
2021/12/31 03:25:09;;;;;;;42.47;7.45;;;;;;;;;;4977697;28;20031;-93
2021/12/31 03:27:35;;;;;;;42.05;8.00;;;;;;;;;;4962258;28;20050;-91
2021/12/31 03:30:00;;;;;;;55.58;8.43;;;;;;;;;;4982072;28;20027;-93
2021/12/31 03:32:25;;;;;;;51.20;9.43;;;;;;;;;;4960158;28;20035;-93
2021/12/31 03:34:51;;;;;;;47.50;8.90;;;;;;;;;;4959933;28;20022;-93
2021/12/31 03:37:16;;;;;;;52.60;8.70;;;;;;;;;;4977037;28;20744;-92
2021/12/31 03:39:41;;;;;;;62.10;10.75;;;;;;;;;;4959956;28;20033;-92
2021/12/31 03:42:07;;;;;;;68.13;11.57;;;;;;;;;;4959844;28;20427;-92
2021/12/31 03:44:32;;;;;;;67.75;11.68;;;;;;;;;;4958631;28;20054;-92
2021/12/31 03:46:57;;;;;;;77.22;12.90;;;;;;;;;;4975675;28;20027;-93
2021/12/31 03:49:22;;;;;;;72.03;12.20;;;;;;;;;;4983596;28;20031;-92
2021/12/31 03:51:48;;;;;;;71.47;12.30;;;;;;;;;;4958109;28;20030;-92
2021/12/31 03:54:13;;;;;;;61.97;10.80;;;;;;;;;;4982657;28;20023;-92
2021/12/31 03:56:38;;;;;;;70.93;11.55;;;;;;;;;;4984862;28;20041;-93
2021/12/31 03:59:03;;;;;;;77.97;13.85;;;;;;;;;;4975790;28;20073;-92
2021/12/31 04:01:29;;;;;;;67.10;12.55;;;;;;;;;;4957969;28;20027;-92
2021/12/31 04:03:54;;;;;;;78.82;12.93;;;;;;;;;;4958324;28;20035;-93
2021/12/31 04:06:21;;;;;;;81.65;12.45;;;;;;;;;;4957888;28;20026;-93
2021/12/31 04:08:46;;;;;;;79.38;12.00;;;;;;;;;;4975812;28;20030;-92
2021/12/31 04:11:13;;;;;;;65.88;11.32;;;;;;;;;;4979523;28;20019;-93
2021/12/31 04:13:38;;;;;;;64.70;12.05;;;;;;;;;;4960583;28;20027;-93
2021/12/31 04:16:04;;;;;;;73.97;12.30;;;;;;;;;;4967284;28;20030;-93
2021/12/31 04:18:29;;;;;;;76.25;13.10;;;;;;;;;;4959376;28;20725;-94
2021/12/31 04:20:57;;;;;;;71.63;12.57;;;;;;;;;;4962025;28;20529;-93
2021/12/31 04:23:30;;;;;;;74.60;13.35;;;;;;;;;;4979427;28;20054;-93
2021/12/31 04:25:57;;;;;;;63.60;12.20;;;;;;;;;;4986353;28;20030;-93
2021/12/31 04:28:22;;;;;;;66.68;12.63;;;;;;;;;;4977517;28;20019;-93
2021/12/31 04:30:47;;;;;;;49.45;9.00;;;;;;;;;;4978793;28;20109;-94
2021/12/31 04:33:13;;;;;;;66.53;11.77;;;;;;;;;;4978307;28;20027;-94
2021/12/31 04:35:38;;;;;;;66.10;12.05;;;;;;;;;;4978884;28;20591;-94
2021/12/31 04:38:03;;;;;;;82.97;15.38;;;;;;;;;;4977077;28;20045;-93
2021/12/31 04:40:29;;;;;;;59.60;12.15;;;;;;;;;;4982009;28;20030;-94
2021/12/31 04:42:54;;;;;;;55.28;11.15;;;;;;;;;;4976792;28;20118;-94
2021/12/31 04:45:19;;;;;;;56.15;10.55;;;;;;;;;;4991428;28;20019;-94
2021/12/31 04:47:45;;;;;;;40.08;8.82;;;;;;;;;;4985621;28;20037;-94
2021/12/31 04:50:11;;;;;;;53.40;10.15;;;;;;;;;;4983107;28;20058;-94
2021/12/31 04:52:36;;;;;;;49.00;9.48;;;;;;;;;;4980488;28;20054;-94
2021/12/31 04:55:02;;;;;;;44.72;8.60;;;;;;;;;;4984957;28;20078;-95
2021/12/31 04:57:27;;;;;;;38.58;8.88;;;;;;;;;;4987304;28;20022;-94
2021/12/31 04:59:59;;;;;;;54.53;9.52;;;;;;;;;;4986877;28;20026;-94
2021/12/31 05:02:25;;;;;;;64.97;13.02;;;;;;;;;;4984079;28;20062;-94
2021/12/31 05:04:51;;;;;;;58.90;10.85;;;;;;;;;;4982722;28;20023;-94
2021/12/31 05:07:17;;;;;;;76.28;13.57;;;;;;;;;;4979113;28;20019;-94
2021/12/31 05:09:42;;;;;;;63.28;11.50;;;;;;;;;;4982725;28;20018;-94
2021/12/31 05:12:13;;;;;;;57.13;10.77;;;;;;;;;;4980519;28;20030;-94
2021/12/31 05:14:38;;;;;;;73.68;13.55;;;;;;;;;;4978422;28;20023;-94
2021/12/31 05:17:07;;;;;;;75.03;14.52;;;;;;;;;;4980675;28;20054;-94
2021/12/31 05:19:32;;;;;;;57.80;11.70;;;;;;;;;;4984320;28;20030;-94
2021/12/31 05:21:58;;;;;;;56.53;10.50;;;;;;;;;;4978871;28;20821;-94
2021/12/31 05:24:23;;;;;;;70.75;13.40;;;;;;;;;;4985285;28;20125;-94
2021/12/31 05:26:48;;;;;;;79.03;13.82;;;;;;;;;;4981645;28;20034;-95
2021/12/31 05:29:14;;;;;;;60.25;12.48;;;;;;;;;;4982659;28;20019;-94
2021/12/31 05:31:39;;;;;;;52.65;12.02;;;;;;;;;;4984172;28;20019;-93
2021/12/31 05:34:04;;;;;;;61.22;11.75;;;;;;;;;;4979841;28;20019;-94
2021/12/31 05:36:30;;;;;;;58.78;10.98;;;;;;;;;;4976264;28;20045;-93
2021/12/31 05:38:55;;;;;;;58.13;12.25;;;;;;;;;;4979449;28;20035;-93
2021/12/31 05:41:20;;;;;;;53.95;11.52;;;;;;;;;;4976958;28;20023;-94
2021/12/31 05:43:46;;;;;;;62.13;11.32;;;;;;;;;;4976658;28;20027;-93
2021/12/31 05:46:11;;;;;;;48.75;11.32;;;;;;;;;;4976644;28;20038;-93
2021/12/31 05:48:36;;;;;;;43.72;8.82;;;;;;;;;;4975204;28;20380;-93
2021/12/31 05:51:02;;;;;;;46.38;9.25;;;;;;;;;;4974960;28;20026;-93
2021/12/31 05:53:27;;;;;;;45.63;10.70;;;;;;;;;;4974925;28;20030;-93
2021/12/31 05:55:52;;;;;;;50.17;12.10;;;;;;;;;;4974885;28;20522;-93
2021/12/31 05:58:18;;;;;;;50.05;11.55;;;;;;;;;;4979389;28;20031;-93
2021/12/31 06:00:43;;;;;;;47.33;11.75;;;;;;;;;;4977434;28;20042;-94
2021/12/31 06:03:08;;;;;;;57.72;13.05;;;;;;;;;;4975882;28;20030;-94
2021/12/31 06:05:33;;;;;;;57.95;13.35;;;;;;;;;;4975829;28;20026;-94
2021/12/31 06:07:59;;;;;;;51.20;11.40;;;;;;;;;;4978789;28;20038;-94
2021/12/31 06:10:25;;;;;;;63.50;14.45;;;;;;;;;;4980495;28;20030;-94
2021/12/31 06:12:52;;;;;;;60.63;14.02;;;;;;;;;;4979639;28;20027;-94
2021/12/31 06:15:19;;;;;;;57.03;13.38;;;;;;;;;;4981143;28;20030;-94
2021/12/31 06:17:45;;;;;;;68.10;15.55;;;;;;;;;;4978151;28;20041;-94
2021/12/31 06:20:10;;;;;;;76.60;15.68;;;;;;;;;;4973052;28;20027;-93
2021/12/31 06:22:36;;;;;;;88.50;17.02;;;;;;;;;;4975920;28;20023;-94
2021/12/31 06:25:01;;;;;;;71.88;15.90;;;;;;;;;;4959350;28;20086;-94
2021/12/31 06:27:26;;;;;;;85.82;17.33;;;;;;;;;;4976464;28;20023;-94
2021/12/31 06:29:52;;;;;;;92.40;18.27;;;;;;;;;;4976022;28;20026;-93
2021/12/31 06:32:17;;;;;;;69.75;16.02;;;;;;;;;;4961414;28;20391;-94
2021/12/31 06:34:42;;;;;;;69.40;15.02;;;;;;;;;;4957497;28;20023;-93
2021/12/31 06:37:08;;;;;;;91.35;16.83;;;;;;;;;;4961317;28;20039;-94
2021/12/31 06:39:35;;;;;;;71.13;15.15;;;;;;;;;;4974407;28;20031;-94
2021/12/31 06:42:03;;;;;;;69.70;14.68;;;;;;;;;;4966893;28;20022;-94
2021/12/31 06:44:29;;;;;;;77.13;17.35;;;;;;;;;;4966645;28;20062;-94
2021/12/31 06:47:03;;;;;;;83.20;18.00;;;;;;;;;;4965840;28;20023;-95
2021/12/31 06:49:29;;;;;;;71.47;15.27;;;;;;;;;;4964704;28;20045;-94
2021/12/31 06:51:57;;;;;;;77.30;15.77;;;;;;;;;;4970586;28;20031;-94
2021/12/31 06:54:22;;;;;;;84.50;18.23;;;;;;;;;;4968250;28;20023;-94
2021/12/31 06:56:48;;;;;;;83.18;17.67;;;;;;;;;;4961326;28;20038;-94
2021/12/31 06:59:13;;;;;;;75.40;15.32;;;;;;;;;;4963283;28;20026;-94
2021/12/31 07:01:39;;;;;;;83.35;17.65;;;;;;;;;;4969512;28;20026;-94
2021/12/31 07:04:04;;;;;;;88.60;19.90;;;;;;;;;;4969047;28;20022;-94
2021/12/31 07:06:31;;;;;;;77.13;16.10;;;;;;;;;;4970157;28;20121;-94
2021/12/31 07:08:57;;;;;;;89.57;18.60;;;;;;;;;;4972033;28;20027;-94
2021/12/31 07:11:25;;;;;;;89.30;17.40;;;;;;;;;;4975088;28;20174;-94
2021/12/31 07:13:51;;;;;;;81.13;17.27;;;;;;;;;;4964884;28;20034;-94
2021/12/31 07:16:17;;;;;;;105.75;19.05;;;;;;;;;;4971401;28;20018;-94
2021/12/31 07:18:42;;;;;;;109.78;20.75;;;;;;;;;;4969341;28;20066;-94
2021/12/31 07:21:07;;;;;;;115.65;23.15;;;;;;;;;;4974011;28;20058;-95
2021/12/31 07:23:33;;;;;;;101.55;20.25;;;;;;;;;;4986018;28;20090;-94
2021/12/31 07:25:58;;;;;;;95.03;19.08;;;;;;;;;;4991663;28;20007;-94
2021/12/31 07:28:30;;;;;;;96.35;18.52;;;;;;;;;;4993101;28;20054;-94
2021/12/31 07:30:56;;;;;;;83.60;19.33;;;;;;;;;;4990577;28;20054;-94
2021/12/31 07:33:23;;;;;;;90.90;18.40;;;;;;;;;;4991109;28;20023;-94
2021/12/31 07:35:50;;;;;;;108.75;23.08;;;;;;;;;;4987456;28;20023;-95
2021/12/31 07:38:27;;;;;;;111.80;20.02;;;;;;;;;;4987736;28;20042;-93
2021/12/31 07:40:53;;;;;;;101.30;18.92;;;;;;;;;;4983258;28;20119;-94
2021/12/31 07:43:19;;;;;;;87.35;18.33;;;;;;;;;;4979266;28;20054;-94
2021/12/31 07:45:44;;;;;;;99.18;19.42;;;;;;;;;;4979765;28;20053;-94
2021/12/31 07:48:09;;;;;;;99.53;17.95;;;;;;;;;;4978061;28;20027;-94
2021/12/31 07:50:36;;;;;;;80.35;16.30;;;;;;;;;;4982557;28;20022;-94
2021/12/31 07:53:03;;;;;;;92.60;18.35;;;;;;;;;;4979008;28;20027;-94
2021/12/31 07:55:30;;;;;;;83.60;18.67;;;;;;;;;;4985963;28;20027;-93
2021/12/31 07:57:55;;;;;;;78.45;17.20;;;;;;;;;;4980689;28;20430;-94
2021/12/31 08:00:21;;;;;;;86.10;18.50;;;;;;;;;;4982655;28;20082;-94
2021/12/31 08:02:46;;;;;;;97.47;19.58;;;;;;;;;;4979292;28;20049;-94
2021/12/31 08:05:11;;;;;;;104.38;21.23;;;;;;;;;;4981322;28;20101;-95
2021/12/31 08:07:37;;;;;;;96.13;17.05;;;;;;;;;;4988352;28;20011;-94
2021/12/31 08:10:03;;;;;;;84.88;17.02;;;;;;;;;;4993868;28;20046;-94
2021/12/31 08:12:29;;;;;;;78.88;15.88;;;;;;;;;;4984454;28;20065;-94
2021/12/31 08:14:54;;;;;;;84.90;17.45;;;;;;;;;;4981330;28;20027;-93
2021/12/31 08:17:20;;;;;;;85.70;17.70;;;;;;;;;;4980602;28;20508;-94
2021/12/31 08:19:45;;;;;;;113.00;22.98;;;;;;;;;;4985570;28;20053;-94
2021/12/31 08:22:11;;;;;;;88.00;18.17;;;;;;;;;;4987920;28;20106;-94
2021/12/31 08:24:36;;;;;;;88.88;18.08;;;;;;;;;;4983613;28;20015;-94
2021/12/31 08:27:02;;;;;;;103.85;20.15;;;;;;;;;;4978699;28;20029;-94
2021/12/31 08:29:27;;;;;;;100.50;19.20;;;;;;;;;;4982305;28;20023;-94
2021/12/31 08:31:53;;;;;;;115.22;22.42;;;;;;;;;;4981404;28;20022;-94
2021/12/31 08:34:18;;;;;;;99.68;19.45;;;;;;;;;;4979151;28;20049;-94
2021/12/31 08:36:43;;;;;;;103.55;19.20;;;;;;;;;;4978685;28;20526;-94
2021/12/31 08:39:09;;;;;;;96.57;19.25;;;;;;;;;;4980929;28;20102;-94
2021/12/31 08:41:35;;;;;;;87.63;17.15;;;;;;;;;;4990896;28;20029;-94
2021/12/31 08:44:01;;;;;;;102.93;20.40;;;;;;;;;;4983254;28;20789;-94
2021/12/31 08:46:26;;;;;;;92.15;17.17;;;;;;;;;;4977918;28;20124;-94
2021/12/31 08:48:52;;;;;;;114.85;18.80;;;;;;;;;;4979463;28;20386;-94
2021/12/31 08:51:18;;;;;;;95.68;19.17;;;;;;;;;;4976333;28;20027;-93
2021/12/31 08:53:43;;;;;;;100.95;19.17;;;;;;;;;;4980990;28;20029;-93
2021/12/31 08:56:08;;;;;;;102.38;21.80;;;;;;;;;;4978275;28;20027;-94
2021/12/31 08:58:34;;;;;;;100.97;18.15;;;;;;;;;;4977729;28;20050;-93
2021/12/31 09:00:59;;;;;;;111.65;20.70;;;;;;;;;;4976643;28;20380;-93
2021/12/31 09:03:25;;;;;;;93.70;18.05;;;;;;;;;;4975160;28;20025;-93
2021/12/31 09:05:50;;;;;;;101.13;18.05;;;;;;;;;;4975822;28;20041;-93
2021/12/31 09:08:16;;;;;;;98.07;19.45;;;;;;;;;;4978363;28;20022;-92
2021/12/31 09:10:42;;;;;;;94.00;18.70;;;;;;;;;;4989196;28;20050;-94
2021/12/31 09:13:08;;;;;;;81.95;18.42;;;;;;;;;;4994348;28;20018;-94
2021/12/31 09:15:34;;;;;;;84.22;18.30;;;;;;;;;;4990379;28;20610;-94
2021/12/31 09:17:59;;;;;;;76.30;16.27;;;;;;;;;;4989308;28;20027;-94
2021/12/31 09:20:27;;;;;;;75.95;17.77;;;;;;;;;;4994395;28;20030;-94
2021/12/31 09:22:53;;;;;;;88.32;15.82;;;;;;;;;;4965614;28;20070;-93
2021/12/31 09:25:18;;;;;;;65.47;18.48;;;;;;;;;;4977770;28;20034;-94
2021/12/31 09:27:46;;;;;;;79.05;17.02;;;;;;;;;;4957949;28;20022;-93
2021/12/31 09:30:12;;;;;;;69.68;16.05;;;;;;;;;;4974015;28;20073;-93
2021/12/31 09:32:38;;;;;;;70.82;17.15;;;;;;;;;;4961256;28;20059;-93
2021/12/31 09:35:04;;;;;;;72.22;16.08;;;;;;;;;;4962995;28;20029;-94
2021/12/31 09:37:29;;;;;;;44.03;12.45;;;;;;;;;;4983001;28;20035;-93
2021/12/31 09:39:54;;;;;;;47.08;11.27;;;;;;;;;;4980082;28;20112;-94
2021/12/31 09:42:20;;;;;;;64.82;12.60;;;;;;;;;;4961493;28;20027;-93
2021/12/31 09:44:49;;;;;;;39.20;9.88;;;;;;;;;;4971792;28;20015;-93
2021/12/31 09:47:15;;;;;;;54.25;12.07;;;;;;;;;;4964933;28;20062;-94
2021/12/31 09:49:41;;;;;;;58.45;14.63;;;;;;;;;;4960917;28;20077;-93
2021/12/31 09:52:10;;;;;;;48.08;12.75;;;;;;;;;;4959054;28;20019;-94
2021/12/31 09:54:36;;;;;;;40.78;11.43;;;;;;;;;;4961215;28;20061;-93
2021/12/31 09:57:02;;;;;;;54.78;14.55;;;;;;;;;;4959260;28;20121;-93
2021/12/31 09:59:28;;;;;;;57.33;15.50;;;;;;;;;;4966302;28;20027;-93
2021/12/31 10:01:54;;;;;;;65.05;14.30;;;;;;;;;;4962762;28;20459;-93
2021/12/31 10:04:20;;;;;;;69.43;18.27;;;;;;;;;;4959255;28;20039;-94
2021/12/31 10:07:05;;;;;;;86.78;19.05;;;;;;;;;;4959382;28;20045;-93
2021/12/31 10:09:32;;;;;;;117.05;25.92;;;;;;;;;;4959371;28;20146;-94
2021/12/31 10:11:58;;;;;;;103.72;22.25;;;;;;;;;;4959327;28;20027;-93
2021/12/31 10:14:36;;;;;;;79.25;15.45;;;;;;;;;;4959247;28;20559;-94
2021/12/31 10:17:02;;;;;;;100.43;20.58;;;;;;;;;;4960837;28;20033;-94
2021/12/31 10:19:27;;;;;;;92.60;22.65;;;;;;;;;;4966176;28;20034;-93
2021/12/31 10:21:54;;;;;;;78.53;19.83;;;;;;;;;;4982050;28;20046;-93
2021/12/31 10:24:22;;;;;;;76.03;17.67;;;;;;;;;;4976929;28;20035;-93
2021/12/31 10:26:48;;;;;;;87.75;17.95;;;;;;;;;;4977324;28;20070;-94
2021/12/31 10:29:13;;;;;;;87.10;16.08;;;;;;;;;;4976238;28;20539;-93
2021/12/31 10:31:43;;;;;;;88.45;15.77;;;;;;;;;;4975531;28;20082;-93
2021/12/31 10:34:23;;;;;;;71.30;14.55;;;;;;;;;;4976910;28;20113;-93
2021/12/31 10:36:48;;;;;;;79.70;18.13;;;;;;;;;;4974476;28;20129;-94
2021/12/31 10:39:15;;;;;;;83.85;16.63;;;;;;;;;;4972964;28;20114;-93
2021/12/31 10:41:41;;;;;;;75.15;16.67;;;;;;;;;;4991006;28;20042;-93
2021/12/31 10:44:06;;;;;;;68.95;16.83;;;;;;;;;;4980916;28;20022;-94
2021/12/31 10:46:31;;;;;;;83.97;18.67;;;;;;;;;;4979401;28;20461;-93
2021/12/31 10:49:03;;;;;;;74.25;16.92;;;;;;;;;;4976588;28;20082;-94
2021/12/31 10:51:34;;;;;;;86.80;17.70;;;;;;;;;;4977213;28;20485;-93
2021/12/31 10:54:15;;;;;;;75.90;17.20;;;;;;;;;;4978476;28;20030;-93
2021/12/31 10:56:41;;;;;;;71.75;15.45;;;;;;;;;;4977058;28;20062;-93
2021/12/31 10:59:07;;;;;;;88.65;18.13;;;;;;;;;;4978713;28;20034;-93
2021/12/31 11:01:32;;;;;;;76.78;16.65;;;;;;;;;;4988264;28;20003;-94
2021/12/31 11:03:57;;;;;;;72.13;15.57;;;;;;;;;;4988024;28;20035;-94
2021/12/31 11:06:23;;;;;;;74.65;16.13;;;;;;;;;;4978716;28;20029;-94
2021/12/31 11:08:49;;;;;;;86.05;19.02;;;;;;;;;;4979780;28;20031;-94
2021/12/31 11:11:15;;;;;;;72.53;15.25;;;;;;;;;;4977258;28;20034;-94
2021/12/31 11:13:43;;;;;;;52.55;14.60;;;;;;;;;;4979271;28;20014;-93
2021/12/31 11:16:10;;;;;;;49.80;13.25;;;;;;;;;;4978932;28;20023;-93
2021/12/31 11:18:35;;;;;;;53.33;12.77;;;;;;;;;;4978097;28;20488;-94
2021/12/31 11:21:02;;;;;;;59.15;14.02;;;;;;;;;;4978685;28;20108;-94
2021/12/31 11:23:28;;;;;;;48.50;10.30;;;;;;;;;;4982249;28;20042;-94
2021/12/31 11:26:05;;;;;;;58.90;13.70;;;;;;;;;;4978419;28;20052;-93
2021/12/31 11:28:34;;;;;;;47.55;14.20;;;;;;;;;;4977213;28;20030;-93
2021/12/31 11:31:18;;;;;;;38.55;11.55;;;;;;;;;;4977361;28;20053;-93
2021/12/31 19:50:32;;;;;;;130.20;30.80;;;;;;;;;;5733940;23;20024;-93
2021/12/31 19:52:57;;;;;;;126.90;28.60;;;;;;;;;;4982027;28;20061;-93
2021/12/31 19:55:23;;;;;;;144.43;34.20;;;;;;;;;;4963487;28;20022;-92
2021/12/31 19:57:48;;;;;;;144.80;32.42;;;;;;;;;;4961124;28;20035;-92
2021/12/31 20:00:19;;;;;;;172.38;36.85;;;;;;;;;;4978313;28;20027;-92
2021/12/31 20:02:44;;;;;;;188.15;39.15;;;;;;;;;;4962694;28;20483;-93
2021/12/31 20:05:10;;;;;;;144.82;31.55;;;;;;;;;;4967604;28;20081;-93
2021/12/31 20:07:35;;;;;;;172.63;38.28;;;;;;;;;;4963155;28;20023;-92
2021/12/31 20:10:00;;;;;;;396.95;150.27;;;;;;;;;;4962404;28;20162;-93
2021/12/31 20:12:26;;;;;;;145.93;32.63;;;;;;;;;;4980445;28;20054;-93
2021/12/31 20:14:51;;;;;;;133.65;30.60;;;;;;;;;;4961216;28;20273;-93
2021/12/31 20:17:16;;;;;;;119.40;27.98;;;;;;;;;;4961967;28;20555;-93
2021/12/31 20:19:42;;;;;;;122.55;29.17;;;;;;;;;;4962331;28;20019;-94
2021/12/31 20:22:08;;;;;;;148.18;31.60;;;;;;;;;;4966840;28;20030;-93
2021/12/31 20:24:34;;;;;;;136.75;32.63;;;;;;;;;;4961203;28;20027;-93
2021/12/31 20:26:59;;;;;;;130.35;36.25;;;;;;;;;;4964016;28;20025;-93
2021/12/31 20:29:26;;;;;;;107.28;27.05;;;;;;;;;;4966520;28;20061;-93
2021/12/31 20:31:52;;;;;;;99.50;25.33;;;;;;;;;;4962084;28;20018;-92
2021/12/31 20:34:17;;;;;;;98.85;25.85;;;;;;;;;;4958916;28;20034;-92
2021/12/31 20:36:42;;;;;;;112.35;28.85;;;;;;;;;;4966771;28;20022;-93
2021/12/31 20:39:07;;;;;;;127.55;32.03;;;;;;;;;;4965077;28;20093;-93
2021/12/31 20:41:34;;;;;;;121.65;31.23;;;;;;;;;;4973072;28;20010;-94
2021/12/31 20:44:03;;;;;;;115.13;30.13;;;;;;;;;;4971978;28;20062;-94
2021/12/31 20:46:34;;;;;;;163.85;43.90;;;;;;;;;;4972934;28;20286;-94
2021/12/31 20:49:11;;;;;;;134.30;40.58;;;;;;;;;;4992589;28;20025;-94
2021/12/31 20:51:47;;;;;;;135.60;35.92;;;;;;;;;;5007548;23;20114;-94
2021/12/31 20:54:12;;;;;;;131.75;32.20;;;;;;;;;;4981145;28;20039;-94
2021/12/31 20:56:38;;;;;;;134.65;34.00;;;;;;;;;;4964619;28;20026;-94
2021/12/31 20:59:03;;;;;;;103.82;30.45;;;;;;;;;;4953039;28;20031;-94
2021/12/31 21:04:25;;;;;;;110.93;29.90;;;;;;;;;;2600564;23;20211;-94
2021/12/31 21:06:51;;;;;;;124.85;33.03;;;;;;;;;;4979257;28;20406;-94
2021/12/31 21:09:16;;;;;;;147.45;33.92;;;;;;;;;;4967885;28;20037;-94
2021/12/31 21:11:42;;;;;;;163.25;37.15;;;;;;;;;;4982800;28;20071;-94
2021/12/31 21:14:07;;;;;;;126.60;28.17;;;;;;;;;;4982259;28;20038;-93
2021/12/31 21:16:33;;;;;;;129.27;27.52;;;;;;;;;;4980832;28;20015;-94
2021/12/31 21:18:59;;;;;;;108.50;25.23;;;;;;;;;;4977813;28;20042;-93
2021/12/31 21:21:24;;;;;;;123.10;28.02;;;;;;;;;;4974940;28;20045;-93
2021/12/31 21:23:49;;;;;;;113.03;27.57;;;;;;;;;;4983188;28;20023;-93
2021/12/31 21:26:15;;;;;;;140.40;40.70;;;;;;;;;;4979172;28;20325;-93
2021/12/31 21:28:40;;;;;;;210.98;64.97;;;;;;;;;;4978464;28;20025;-93
2021/12/31 21:31:05;;;;;;;162.77;52.03;;;;;;;;;;4979782;28;20054;-93
2021/12/31 21:33:31;;;;;;;125.53;31.75;;;;;;;;;;4984038;28;20050;-93
2021/12/31 21:35:56;;;;;;;99.93;24.02;;;;;;;;;;4981499;28;20053;-92
2021/12/31 21:38:22;;;;;;;108.80;24.38;;;;;;;;;;4977696;28;20468;-93
2021/12/31 21:40:52;;;;;;;115.35;25.98;;;;;;;;;;4964294;28;20137;-93
2021/12/31 21:43:18;;;;;;;112.80;27.17;;;;;;;;;;4983241;28;20081;-94
2021/12/31 21:45:45;;;;;;;115.95;30.23;;;;;;;;;;4982026;28;20026;-93
2021/12/31 21:48:10;;;;;;;117.70;27.98;;;;;;;;;;4984949;28;20483;-93
2021/12/31 21:50:35;;;;;;;137.65;34.40;;;;;;;;;;4960173;28;20035;-93
2021/12/31 21:53:01;;;;;;;141.35;37.08;;;;;;;;;;4985509;28;20090;-94
2021/12/31 21:55:28;;;;;;;145.52;29.65;;;;;;;;;;4978331;28;20023;-94
2021/12/31 21:57:53;;;;;;;155.20;32.45;;;;;;;;;;4960436;28;20030;-93
2021/12/31 22:00:19;;;;;;;246.77;73.47;;;;;;;;;;4980838;28;20026;-94
2021/12/31 22:02:44;;;;;;;245.15;69.18;;;;;;;;;;4984059;28;20018;-93
2021/12/31 22:05:10;;;;;;;198.38;46.72;;;;;;;;;;4974220;28;20514;-93
2021/12/31 22:07:35;;;;;;;244.05;61.40;;;;;;;;;;4958095;28;20031;-93
2021/12/31 22:10:01;;;;;;;283.10;62.20;;;;;;;;;;4973761;28;20026;-93
2021/12/31 22:12:26;;;;;;;278.67;58.05;;;;;;;;;;4973208;28;20109;-93
2021/12/31 22:14:51;;;;;;;202.98;44.72;;;;;;;;;;4988653;28;20023;-94
2021/12/31 22:17:17;;;;;;;247.10;52.53;;;;;;;;;;4979319;28;20022;-93
2021/12/31 22:19:43;;;;;;;198.63;40.65;;;;;;;;;;4982786;28;20023;-93
2021/12/31 22:22:08;;;;;;;223.45;44.58;;;;;;;;;;4986541;28;20105;-93
2021/12/31 22:24:33;;;;;;;236.45;41.72;;;;;;;;;;4973721;28;20121;-93
2021/12/31 22:29:36;;;;;;;222.60;40.65;;;;;;;;;;5008201;28;20046;-94
2021/12/31 22:32:03;;;;;;;255.02;65.00;;;;;;;;;;5005912;28;20569;-94
2021/12/31 22:34:36;;;;;;;197.82;37.45;;;;;;;;;;5009072;28;20054;-94
2021/12/31 22:37:04;;;;;;;208.15;40.63;;;;;;;;;;5035730;23;20467;-94
2021/12/31 22:39:32;;;;;;;222.50;43.20;;;;;;;;;;5423477;23;20058;-94
2021/12/31 22:44:52;;;;;;;241.85;55.00;;;;;;;;;;5176056;23;20046;-94